Time;durP1;ratioP1;P1;durP2;ratioP2;P2;SDS_P1;SDS_P2;PMS_P1;PMS_P2;Temp;Humidity;BMP_temperature;BMP_pressure;BME280_temperature;BME280_humidity;BME280_pressure;Samples;Min_cycle;Max_cycle;Signal;HPM_P1;HPM_P2
2023/08/09 00:00:32;;;;;;;3.00;1.80;;;;;;;;;;5035721;28;20418;-77
2023/08/09 00:03:02;;;;;;;2.03;1.80;;;;;;;;;;5053906;28;20052;-77
2023/08/09 00:05:30;;;;;;;2.55;1.60;;;;;;;;;;5054349;28;20048;-77
2023/08/09 00:07:57;;;;;;;3.13;1.60;;;;;;;;;;5053804;28;20072;-77
2023/08/09 00:10:25;;;;;;;2.90;1.83;;;;;;;;;;5053674;28;20064;-76
2023/08/09 00:12:53;;;;;;;2.10;1.90;;;;;;;;;;5053606;28;20127;-76
2023/08/09 00:15:20;;;;;;;3.95;2.33;;;;;;;;;;5053463;28;20037;-77
2023/08/09 00:17:48;;;;;;;2.00;1.80;;;;;;;;;;5053590;28;20521;-76
2023/08/09 00:20:16;;;;;;;2.40;1.98;;;;;;;;;;5053526;28;20044;-77
2023/08/09 00:22:43;;;;;;;3.20;2.15;;;;;;;;;;5053412;28;20095;-76
2023/08/09 00:25:11;;;;;;;3.50;2.10;;;;;;;;;;5053408;28;20127;-77
2023/08/09 00:27:39;;;;;;;5.10;2.10;;;;;;;;;;5053356;28;20048;-76
2023/08/09 00:30:15;;;;;;;3.50;2.00;;;;;;;;;;5035399;28;20051;-77
2023/08/09 00:32:43;;;;;;;2.53;1.85;;;;;;;;;;5035558;28;20055;-77
2023/08/09 00:35:11;;;;;;;3.85;2.00;;;;;;;;;;5053268;28;20461;-77
2023/08/09 00:37:39;;;;;;;3.47;1.88;;;;;;;;;;5053264;28;20082;-76
2023/08/09 00:40:07;;;;;;;6.05;2.42;;;;;;;;;;5035075;28;20047;-77
2023/08/09 00:42:35;;;;;;;3.78;2.35;;;;;;;;;;5053217;28;20064;-77
2023/08/09 00:45:03;;;;;;;3.70;2.60;;;;;;;;;;5035061;28;20483;-77
2023/08/09 00:47:32;;;;;;;3.17;2.28;;;;;;;;;;5052908;28;20490;-77
2023/08/09 00:50:00;;;;;;;4.05;2.42;;;;;;;;;;5035200;28;20048;-77
2023/08/09 00:52:28;;;;;;;4.13;2.45;;;;;;;;;;5034906;28;20070;-77
2023/08/09 00:54:57;;;;;;;2.58;2.10;;;;;;;;;;5034797;28;20084;-76
2023/08/09 00:57:24;;;;;;;5.22;1.90;;;;;;;;;;5035009;28;20041;-77
2023/08/09 00:59:52;;;;;;;3.20;1.90;;;;;;;;;;5034734;28;20526;-77
2023/08/09 01:02:20;;;;;;;4.53;2.00;;;;;;;;;;5034859;28;20091;-77
2023/08/09 01:04:47;;;;;;;3.88;1.73;;;;;;;;;;5034809;28;20041;-76
2023/08/09 01:07:41;;;;;;;5.30;2.05;;;;;;;;;;5034722;28;20041;-77
2023/08/09 01:10:15;;;;;;;2.88;1.77;;;;;;;;;;5012922;28;20044;-77
2023/08/09 01:12:49;;;;;;;1.98;1.80;;;;;;;;;;5034664;28;20051;-75
2023/08/09 01:15:18;;;;;;;7.93;2.20;;;;;;;;;;5034743;28;20076;-76
2023/08/09 01:17:51;;;;;;;4.80;2.00;;;;;;;;;;5051115;28;20037;-75
2023/08/09 01:20:21;;;;;;;;;;;;;;;;;;5035109;28;20122;-76
2023/08/09 01:22:57;;;;;;;3.50;1.77;;;;;;;;;;5034566;28;20011;-77
2023/08/09 01:25:26;;;;;;;3.78;1.67;;;;;;;;;;5034568;28;20131;-77
2023/08/09 01:27:53;;;;;;;2.22;1.67;;;;;;;;;;5034352;28;20128;-77
2023/08/09 01:30:20;;;;;;;8.63;2.15;;;;;;;;;;5034438;28;20487;-77
2023/08/09 01:32:48;;;;;;;7.40;2.30;;;;;;;;;;5034516;28;20412;-77
2023/08/09 01:35:16;;;;;;;5.95;2.20;;;;;;;;;;5052253;28;20448;-77
2023/08/09 01:37:50;;;;;;;7.20;2.20;;;;;;;;;;5018432;28;20045;-77
2023/08/09 01:40:18;;;;;;;4.90;1.63;;;;;;;;;;5051117;28;20049;-77
2023/08/09 01:42:46;;;;;;;1.90;1.70;;;;;;;;;;5034504;28;20041;-77
2023/08/09 01:45:14;;;;;;;4.28;1.67;;;;;;;;;;5018057;28;20055;-77
2023/08/09 01:47:42;;;;;;;5.18;2.00;;;;;;;;;;5034283;28;20687;-77
2023/08/09 01:50:26;;;;;;;4.22;1.90;;;;;;;;;;5034422;28;20084;-77
2023/08/09 01:52:58;;;;;;;9.95;2.50;;;;;;;;;;5034801;28;20556;-77
2023/08/09 01:55:26;;;;;;;6.95;2.50;;;;;;;;;;5034290;28;20524;-77
2023/08/09 01:57:54;;;;;;;4.35;1.95;;;;;;;;;;5034231;28;20471;-77
2023/08/09 02:00:22;;;;;;;5.70;2.50;;;;;;;;;;5034218;28;20052;-77
2023/08/09 02:02:51;;;;;;;3.90;2.70;;;;;;;;;;5034779;28;20072;-76
2023/08/09 02:05:19;;;;;;;6.65;2.97;;;;;;;;;;5038203;28;20041;-77
2023/08/09 02:07:47;;;;;;;5.13;2.50;;;;;;;;;;5038192;28;20041;-77
2023/08/09 02:10:17;;;;;;;6.10;2.53;;;;;;;;;;5056097;28;20128;-77
2023/08/09 02:12:47;;;;;;;4.00;2.20;;;;;;;;;;5037937;28;20049;-77
2023/08/09 02:15:16;;;;;;;4.45;2.63;;;;;;;;;;5037939;28;20388;-77
2023/08/09 02:17:45;;;;;;;3.92;2.83;;;;;;;;;;5055773;28;20044;-77
2023/08/09 02:20:13;;;;;;;5.70;2.97;;;;;;;;;;5055673;28;20124;-77
2023/08/09 02:22:40;;;;;;;2.83;2.30;;;;;;;;;;5037859;28;20079;-76
2023/08/09 02:25:09;;;;;;;4.90;2.50;;;;;;;;;;5037696;28;20051;-77
2023/08/09 02:27:37;;;;;;;5.78;2.40;;;;;;;;;;5037801;28;20045;-77
2023/08/09 02:30:06;;;;;;;4.38;2.75;;;;;;;;;;5055467;28;20044;-77
2023/08/09 02:32:34;;;;;;;5.38;2.67;;;;;;;;;;5055638;28;20041;-76
2023/08/09 02:35:02;;;;;;;7.18;2.88;;;;;;;;;;5037679;28;20132;-76
2023/08/09 02:37:30;;;;;;;5.20;2.63;;;;;;;;;;5055557;28;20465;-76
2023/08/09 02:39:58;;;;;;;3.78;2.60;;;;;;;;;;5037395;28;20087;-76
2023/08/09 02:42:26;;;;;;;4.35;2.45;;;;;;;;;;5037577;28;20091;-77
2023/08/09 02:44:53;;;;;;;6.22;3.13;;;;;;;;;;5055199;28;20043;-76
2023/08/09 02:47:21;;;;;;;2.95;2.50;;;;;;;;;;5037157;28;20443;-77
2023/08/09 02:49:48;;;;;;;6.43;3.05;;;;;;;;;;5037483;28;20044;-76
2023/08/09 02:52:16;;;;;;;5.03;3.17;;;;;;;;;;5053992;28;20052;-77
2023/08/09 02:54:43;;;;;;;5.85;2.95;;;;;;;;;;5037214;28;20514;-76
2023/08/09 02:57:11;;;;;;;4.20;2.85;;;;;;;;;;5037049;28;20041;-75
2023/08/09 02:59:39;;;;;;;4.18;3.03;;;;;;;;;;5036946;28;20053;-75
2023/08/09 03:02:07;;;;;;;4.88;3.15;;;;;;;;;;5037153;28;20135;-75
2023/08/09 03:04:36;;;;;;;5.03;3.40;;;;;;;;;;5054892;28;20041;-75
2023/08/09 03:07:03;;;;;;;7.25;3.38;;;;;;;;;;5036968;28;20486;-76
2023/08/09 03:09:34;;;;;;;4.45;3.00;;;;;;;;;;5036974;28;20115;-75
2023/08/09 03:12:02;;;;;;;5.60;3.10;;;;;;;;;;5054830;28;20075;-74
2023/08/09 03:14:29;;;;;;;5.40;2.95;;;;;;;;;;5035656;28;20040;-74
2023/08/09 03:16:57;;;;;;;6.05;3.47;;;;;;;;;;5036632;28;20384;-75
2023/08/09 03:19:24;;;;;;;6.53;3.22;;;;;;;;;;5037006;28;20044;-74
2023/08/09 03:21:52;;;;;;;11.20;5.38;;;;;;;;;;5054965;28;20095;-75
2023/08/09 03:24:20;;;;;;;7.07;3.67;;;;;;;;;;5054445;28;20041;-74
2023/08/09 03:26:48;;;;;;;8.07;3.50;;;;;;;;;;5036566;28;20045;-75
2023/08/09 03:29:18;;;;;;;6.43;3.40;;;;;;;;;;5036753;28;20036;-75
2023/08/09 03:31:46;;;;;;;7.97;3.70;;;;;;;;;;5036518;28;20152;-74
2023/08/09 03:34:16;;;;;;;14.68;3.92;;;;;;;;;;5051582;28;20037;-74
2023/08/09 03:36:44;;;;;;;5.70;3.60;;;;;;;;;;5056406;28;20044;-74
2023/08/09 03:39:12;;;;;;;10.13;3.67;;;;;;;;;;5056332;28;20052;-75
2023/08/09 03:41:40;;;;;;;8.55;3.72;;;;;;;;;;5056250;28;20044;-75
2023/08/09 03:44:08;;;;;;;7.63;3.83;;;;;;;;;;5056496;28;20135;-75
2023/08/09 03:46:36;;;;;;;7.63;3.42;;;;;;;;;;5056603;28;20048;-73
2023/08/09 03:49:04;;;;;;;6.75;3.70;;;;;;;;;;5053475;28;20529;-77
2023/08/09 03:51:36;;;;;;;10.18;3.33;;;;;;;;;;5041122;28;20049;-77
2023/08/09 03:54:04;;;;;;;6.82;3.70;;;;;;;;;;5036134;28;20063;-76
2023/08/09 03:56:32;;;;;;;7.13;3.90;;;;;;;;;;5036253;28;20087;-76
2023/08/09 03:58:59;;;;;;;8.93;3.75;;;;;;;;;;5050458;28;20140;-76
2023/08/09 04:01:28;;;;;;;11.50;3.80;;;;;;;;;;5038467;28;20076;-76
2023/08/09 04:03:55;;;;;;;5.47;3.35;;;;;;;;;;5055733;28;20051;-76
2023/08/09 04:06:23;;;;;;;8.93;4.10;;;;;;;;;;5055700;28;20037;-76
2023/08/09 04:08:51;;;;;;;7.60;4.10;;;;;;;;;;5073683;28;20099;-77
2023/08/09 04:11:18;;;;;;;5.72;3.42;;;;;;;;;;5055492;28;20070;-76
2023/08/09 04:13:46;;;;;;;6.65;3.38;;;;;;;;;;5055524;28;20131;-74
2023/08/09 04:16:14;;;;;;;6.70;3.60;;;;;;;;;;5037271;28;20036;-75
2023/08/09 04:18:41;;;;;;;11.00;3.67;;;;;;;;;;5053728;28;20052;-74
2023/08/09 04:21:09;;;;;;;6.97;3.97;;;;;;;;;;5053614;28;20526;-75
2023/08/09 04:23:38;;;;;;;5.57;3.70;;;;;;;;;;5072120;28;20064;-75
2023/08/09 04:26:05;;;;;;;8.60;4.22;;;;;;;;;;5073962;28;20406;-75
2023/08/09 04:28:33;;;;;;;8.82;4.10;;;;;;;;;;5071516;28;20094;-74
2023/08/09 04:31:02;;;;;;;6.85;2.95;;;;;;;;;;5073149;28;20052;-74
2023/08/09 04:33:29;;;;;;;4.30;3.17;;;;;;;;;;5073149;28;20041;-76
2023/08/09 04:35:58;;;;;;;6.43;3.70;;;;;;;;;;5073113;28;20098;-74
2023/08/09 04:38:26;;;;;;;6.32;3.15;;;;;;;;;;5073096;28;20048;-75
2023/08/09 04:40:54;;;;;;;9.95;3.42;;;;;;;;;;5073109;28;20394;-74
2023/08/09 04:43:21;;;;;;;5.82;2.67;;;;;;;;;;5073089;28;20044;-75
2023/08/09 04:45:49;;;;;;;6.03;3.00;;;;;;;;;;5072879;28;20068;-75
2023/08/09 04:48:17;;;;;;;3.60;2.90;;;;;;;;;;5055074;28;20466;-75
2023/08/09 04:50:45;;;;;;;5.50;3.05;;;;;;;;;;5071115;28;20546;-74
2023/08/09 04:53:12;;;;;;;3.72;3.20;;;;;;;;;;5070837;28;20508;-74
2023/08/09 04:55:40;;;;;;;4.90;2.50;;;;;;;;;;5052824;28;20052;-74
2023/08/09 04:58:08;;;;;;;8.30;3.00;;;;;;;;;;5052925;28;20041;-75
2023/08/09 05:00:35;;;;;;;11.20;3.50;;;;;;;;;;5052873;28;20156;-75
2023/08/09 05:03:04;;;;;;;4.32;3.20;;;;;;;;;;5052919;28;20486;-74
2023/08/09 05:05:34;;;;;;;9.77;2.90;;;;;;;;;;5052910;28;20045;-74
2023/08/09 05:08:01;;;;;;;3.70;2.88;;;;;;;;;;5052861;28;20029;-74
2023/08/09 05:10:29;;;;;;;4.75;3.60;;;;;;;;;;5052724;28;20041;-75
2023/08/09 05:12:56;;;;;;;8.35;3.20;;;;;;;;;;5052805;28;20041;-75
2023/08/09 05:15:24;;;;;;;3.47;2.80;;;;;;;;;;5052620;28;20041;-76
2023/08/09 05:17:51;;;;;;;5.13;3.03;;;;;;;;;;5052635;28;20041;-74
2023/08/09 05:20:19;;;;;;;6.93;3.05;;;;;;;;;;5052605;28;20571;-75
2023/08/09 05:22:47;;;;;;;5.30;2.70;;;;;;;;;;5052620;28;20132;-75
2023/08/09 05:25:15;;;;;;;5.32;2.67;;;;;;;;;;5052497;28;20110;-75
2023/08/09 05:27:48;;;;;;;4.50;2.92;;;;;;;;;;5052678;28;20079;-76
2023/08/09 05:30:16;;;;;;;4.05;3.28;;;;;;;;;;5052543;28;20498;-76
2023/08/09 05:32:43;;;;;;;4.88;3.08;;;;;;;;;;5052771;28;20381;-75
2023/08/09 05:35:11;;;;;;;9.30;2.95;;;;;;;;;;5052507;28;20048;-76
2023/08/09 05:37:38;;;;;;;4.95;3.00;;;;;;;;;;5051692;28;20045;-75
2023/08/09 05:40:13;;;;;;;4.95;2.90;;;;;;;;;;5052401;28;20497;-75
2023/08/09 05:42:42;;;;;;;3.15;2.40;;;;;;;;;;5052471;28;20053;-75
2023/08/09 05:45:09;;;;;;;4.53;2.60;;;;;;;;;;5052303;28;20445;-76
2023/08/09 05:47:37;;;;;;;8.30;2.78;;;;;;;;;;5052265;28;20440;-76
2023/08/09 05:50:05;;;;;;;6.90;3.00;;;;;;;;;;5067831;28;20125;-75
2023/08/09 05:52:32;;;;;;;4.05;2.35;;;;;;;;;;5052342;28;20068;-75
2023/08/09 05:55:03;;;;;;;3.13;2.50;;;;;;;;;;5052161;28;20045;-75
2023/08/09 05:57:30;;;;;;;6.07;2.85;;;;;;;;;;5052555;28;20106;-76
2023/08/09 05:59:58;;;;;;;5.25;2.65;;;;;;;;;;5052139;28;20045;-76
2023/08/09 06:02:25;;;;;;;6.30;3.05;;;;;;;;;;5052071;28;20136;-75
2023/08/09 06:04:53;;;;;;;5.47;2.88;;;;;;;;;;5050783;28;20059;-75
2023/08/09 06:07:20;;;;;;;2.88;2.22;;;;;;;;;;5052223;28;20047;-77
2023/08/09 06:09:48;;;;;;;4.00;2.42;;;;;;;;;;5052133;28;20440;-73
2023/08/09 06:12:15;;;;;;;2.30;2.10;;;;;;;;;;5067457;28;20064;-77
2023/08/09 06:14:43;;;;;;;6.22;2.10;;;;;;;;;;5052051;28;20073;-73
2023/08/09 06:17:11;;;;;;;4.88;2.50;;;;;;;;;;5067626;28;20119;-74
2023/08/09 06:19:38;;;;;;;4.25;2.80;;;;;;;;;;5051992;28;20055;-73
2023/08/09 06:22:06;;;;;;;3.90;2.65;;;;;;;;;;5051901;28;20119;-74
2023/08/09 06:24:33;;;;;;;3.85;2.58;;;;;;;;;;5050540;28;20056;-74
2023/08/09 06:27:01;;;;;;;10.05;6.10;;;;;;;;;;5051848;28;20037;-73
2023/08/09 06:29:28;;;;;;;5.05;3.28;;;;;;;;;;5051802;28;20040;-73
2023/08/09 06:31:56;;;;;;;2.35;2.15;;;;;;;;;;5051977;28;20049;-75
2023/08/09 06:34:24;;;;;;;2.50;2.28;;;;;;;;;;5051855;28;20120;-77
2023/08/09 06:36:51;;;;;;;2.67;2.30;;;;;;;;;;5051843;28;20037;-73
2023/08/09 06:39:19;;;;;;;4.50;2.25;;;;;;;;;;5051842;28;20061;-76
2023/08/09 06:41:46;;;;;;;4.13;2.10;;;;;;;;;;5067174;28;20064;-74
2023/08/09 06:44:15;;;;;;;9.40;2.63;;;;;;;;;;5050540;28;20049;-74
2023/08/09 06:46:44;;;;;;;5.40;2.30;;;;;;;;;;5051608;28;20051;-75
2023/08/09 06:49:12;;;;;;;4.20;2.10;;;;;;;;;;5052913;28;20048;-75
2023/08/09 06:51:41;;;;;;;1.90;1.70;;;;;;;;;;5055326;28;20112;-74
2023/08/09 06:54:09;;;;;;;4.43;2.22;;;;;;;;;;5055240;28;20041;-74
2023/08/09 06:56:36;;;;;;;4.25;1.80;;;;;;;;;;5055176;28;20119;-75
2023/08/09 06:59:04;;;;;;;4.93;1.80;;;;;;;;;;5054976;28;20059;-75
2023/08/09 07:01:32;;;;;;;2.65;1.70;;;;;;;;;;5055089;28;20041;-75
2023/08/09 07:04:00;;;;;;;4.03;1.70;;;;;;;;;;5055126;28;20559;-75
2023/08/09 07:06:28;;;;;;;2.63;1.60;;;;;;;;;;5054999;28;20128;-74
2023/08/09 07:08:55;;;;;;;2.88;1.60;;;;;;;;;;5054864;28;20037;-74
2023/08/09 07:11:23;;;;;;;2.58;1.73;;;;;;;;;;5055038;28;20076;-74
2023/08/09 07:13:50;;;;;;;4.25;1.58;;;;;;;;;;5054878;28;20037;-74
2023/08/09 07:16:18;;;;;;;2.17;1.55;;;;;;;;;;5054911;28;20095;-74
2023/08/09 07:18:46;;;;;;;4.65;2.53;;;;;;;;;;5037392;28;20060;-74
2023/08/09 07:21:13;;;;;;;4.53;1.85;;;;;;;;;;5053470;28;20056;-74
2023/08/09 07:23:41;;;;;;;2.67;1.67;;;;;;;;;;5054728;28;20033;-73
2023/08/09 07:26:24;;;;;;;1.90;1.70;;;;;;;;;;5054508;28;20115;-74
2023/08/09 07:28:52;;;;;;;2.75;1.40;;;;;;;;;;5054622;28;20041;-74
2023/08/09 07:31:20;;;;;;;2.47;1.92;;;;;;;;;;5054564;28;20095;-74
2023/08/09 07:33:48;;;;;;;2.78;1.60;;;;;;;;;;5054371;28;20064;-74
2023/08/09 07:36:16;;;;;;;1.33;1.23;;;;;;;;;;5054416;28;20052;-75
2023/08/09 07:38:43;;;;;;;2.40;1.52;;;;;;;;;;5054378;28;20072;-75
2023/08/09 07:41:11;;;;;;;1.48;1.33;;;;;;;;;;5054471;28;20041;-74
2023/08/09 07:43:38;;;;;;;1.58;1.48;;;;;;;;;;5054465;28;20478;-74
2023/08/09 07:46:06;;;;;;;1.25;0.98;;;;;;;;;;5054355;28;20056;-76
2023/08/09 07:48:34;;;;;;;1.98;1.30;;;;;;;;;;5054605;28;20068;-74
2023/08/09 07:51:02;;;;;;;3.28;1.25;;;;;;;;;;5054724;28;20047;-76
2023/08/09 07:53:29;;;;;;;1.48;1.23;;;;;;;;;;5054604;28;20041;-75
2023/08/09 07:55:57;;;;;;;1.70;1.10;;;;;;;;;;5054401;28;20040;-74
2023/08/09 07:58:25;;;;;;;1.70;1.08;;;;;;;;;;5053970;28;20087;-74
2023/08/09 08:00:52;;;;;;;1.58;1.10;;;;;;;;;;5053073;28;20061;-74
2023/08/09 08:03:20;;;;;;;2.28;1.35;;;;;;;;;;5069330;28;20068;-77
2023/08/09 08:05:47;;;;;;;2.00;1.60;;;;;;;;;;5054045;28;20041;-75
2023/08/09 08:08:17;;;;;;;3.17;1.58;;;;;;;;;;5053932;28;20113;-76
2023/08/09 08:10:44;;;;;;;3.10;0.93;;;;;;;;;;5053938;28;20478;-76
2023/08/09 08:13:12;;;;;;;1.20;0.93;;;;;;;;;;5053835;28;20045;-77
2023/08/09 08:15:40;;;;;;;1.38;0.70;;;;;;;;;;5053737;28;20056;-76
2023/08/09 08:18:07;;;;;;;0.70;0.70;;;;;;;;;;5053812;28;20444;-76
2023/08/09 08:20:35;;;;;;;2.97;1.48;;;;;;;;;;5053667;28;20052;-77
2023/08/09 08:23:04;;;;;;;3.45;1.55;;;;;;;;;;5053664;28;20072;-76
2023/08/09 08:25:33;;;;;;;1.88;0.90;;;;;;;;;;5053427;28;20040;-76
2023/08/09 08:28:01;;;;;;;1.00;0.90;;;;;;;;;;5053489;28;20051;-76
2023/08/09 08:30:29;;;;;;;1.23;1.13;;;;;;;;;;5053553;28;20434;-75
2023/08/09 08:32:56;;;;;;;1.92;1.33;;;;;;;;;;5053473;28;20422;-76
2023/08/09 08:35:24;;;;;;;2.80;2.08;;;;;;;;;;5053441;28;20476;-75
2023/08/09 08:37:55;;;;;;;1.80;1.00;;;;;;;;;;5053355;28;20069;-76
2023/08/09 08:40:23;;;;;;;1.15;0.95;;;;;;;;;;5053334;28;20129;-75
2023/08/09 08:42:51;;;;;;;2.05;1.23;;;;;;;;;;5053748;28;20048;-76
2023/08/09 08:45:19;;;;;;;4.43;1.40;;;;;;;;;;5035304;28;20045;-75
2023/08/09 08:47:47;;;;;;;1.35;0.90;;;;;;;;;;5053057;28;20505;-75
2023/08/09 08:50:16;;;;;;;2.58;1.60;;;;;;;;;;5053367;28;20048;-75
2023/08/09 08:52:44;;;;;;;3.80;2.60;;;;;;;;;;5053506;28;20041;-75
2023/08/09 08:55:12;;;;;;;1.70;1.42;;;;;;;;;;5052995;28;20052;-74
2023/08/09 08:57:41;;;;;;;5.82;3.88;;;;;;;;;;5053151;28;20449;-75
2023/08/09 09:00:15;;;;;;;2.13;1.88;;;;;;;;;;5068093;28;20048;-76
2023/08/09 09:02:54;;;;;;;3.88;1.52;;;;;;;;;;5052933;28;20064;-75
2023/08/09 09:05:21;;;;;;;3.88;2.92;;;;;;;;;;5051521;28;20045;-75
2023/08/09 09:07:50;;;;;;;2.08;1.88;;;;;;;;;;5051217;28;20049;-75
2023/08/09 09:10:20;;;;;;;1.33;1.10;;;;;;;;;;5052754;28;20098;-75
2023/08/09 09:12:53;;;;;;;1.35;1.23;;;;;;;;;;5052639;28;20550;-75
2023/08/09 09:15:21;;;;;;;2.22;1.52;;;;;;;;;;5052913;28;20525;-75
2023/08/09 09:17:49;;;;;;;3.15;2.45;;;;;;;;;;5053196;28;20041;-74
2023/08/09 09:20:21;;;;;;;1.45;1.10;;;;;;;;;;5053064;28;20371;-74
2023/08/09 09:22:48;;;;;;;2.20;2.00;;;;;;;;;;5052436;28;20572;-75
2023/08/09 09:25:17;;;;;;;2.10;1.40;;;;;;;;;;5052455;28;20539;-75
2023/08/09 09:27:52;;;;;;;4.97;2.30;;;;;;;;;;5052371;28;20049;-74
2023/08/09 09:30:21;;;;;;;;;;;;;;;;;;5052887;28;20061;-76
2023/08/09 09:32:51;;;;;;;3.65;1.40;;;;;;;;;;5067823;28;19928;-75
2023/08/09 09:35:20;;;;;;;2.75;2.00;;;;;;;;;;5052394;28;20041;-75
2023/08/09 09:37:47;;;;;;;3.80;2.25;;;;;;;;;;5051181;28;20045;-75
2023/08/09 09:40:22;;;;;;;1.60;1.33;;;;;;;;;;5052276;28;20053;-75
2023/08/09 09:42:56;;;;;;;2.97;1.20;;;;;;;;;;5052503;28;20041;-74
2023/08/09 09:45:25;;;;;;;4.22;1.45;;;;;;;;;;5051118;28;20053;-74
2023/08/09 09:47:54;;;;;;;2.40;1.25;;;;;;;;;;5052250;28;20047;-75
2023/08/09 09:50:25;;;;;;;2.83;1.55;;;;;;;;;;5050988;28;20372;-74
2023/08/09 09:52:53;;;;;;;2.13;1.77;;;;;;;;;;5052204;28;20071;-75
2023/08/09 09:55:25;;;;;;;6.15;5.15;;;;;;;;;;5052138;28;20045;-75
2023/08/09 09:57:53;;;;;;;7.25;6.18;;;;;;;;;;5052206;28;20055;-75
2023/08/09 10:00:25;;;;;;;5.07;4.25;;;;;;;;;;5051907;28;20087;-75
2023/08/09 10:02:53;;;;;;;2.83;1.73;;;;;;;;;;5052095;28;20117;-76
2023/08/09 10:05:25;;;;;;;6.50;3.47;;;;;;;;;;5052036;28;20087;-75
2023/08/09 10:07:53;;;;;;;5.10;3.75;;;;;;;;;;5051983;28;20432;-75
2023/08/09 10:10:21;;;;;;;2.38;1.50;;;;;;;;;;5052106;28;20033;-75
2023/08/09 10:12:51;;;;;;;3.60;1.40;;;;;;;;;;5051954;28;20086;-75
2023/08/09 10:15:20;;;;;;;2.97;0.90;;;;;;;;;;5052296;28;20041;-76
2023/08/09 10:17:49;;;;;;;1.90;1.55;;;;;;;;;;5050605;28;20528;-78
2023/08/09 10:20:18;;;;;;;5.43;3.20;;;;;;;;;;5052101;28;20037;-77
2023/08/09 10:22:46;;;;;;;4.28;3.17;;;;;;;;;;5052151;28;20045;-76
2023/08/09 10:25:14;;;;;;;5.75;3.13;;;;;;;;;;5054856;28;20061;-76
2023/08/09 10:27:59;;;;;;;5.15;3.00;;;;;;;;;;5055737;28;20040;-76
2023/08/09 10:30:28;;;;;;;5.22;4.15;;;;;;;;;;5055677;28;20039;-76
2023/08/09 10:32:56;;;;;;;6.93;4.90;;;;;;;;;;5055898;28;20049;-76
2023/08/09 10:35:43;;;;;;;3.17;2.20;;;;;;;;;;5055690;28;20132;-77
2023/08/09 10:38:14;;;;;;;1.63;1.50;;;;;;;;;;5055582;28;20490;-76
2023/08/09 10:40:42;;;;;;;2.42;1.38;;;;;;;;;;5055809;28;20450;-76
2023/08/09 10:43:17;;;;;;;1.15;0.93;;;;;;;;;;5056528;28;20033;-76
2023/08/09 10:45:46;;;;;;;0.80;0.80;;;;;;;;;;5060666;28;20045;-77
2023/08/09 10:48:17;;;;;;;1.70;1.20;;;;;;;;;;5060789;28;20036;-76
2023/08/09 10:50:45;;;;;;;2.80;1.30;;;;;;;;;;5059033;28;20486;-77
2023/08/09 10:53:23;;;;;;;1.70;0.93;;;;;;;;;;5064180;28;20115;-77
2023/08/09 10:55:51;;;;;;;2.55;1.30;;;;;;;;;;5075452;28;20124;-77
2023/08/09 10:58:19;;;;;;;0.98;0.82;;;;;;;;;;5074684;28;20112;-77
2023/08/09 11:00:48;;;;;;;1.30;0.90;;;;;;;;;;5076121;28;20135;-77
2023/08/09 11:03:16;;;;;;;0.77;0.77;;;;;;;;;;5057336;28;20060;-77
2023/08/09 11:05:44;;;;;;;1.40;1.30;;;;;;;;;;5074924;28;20486;-76
2023/08/09 11:08:17;;;;;;;3.08;1.65;;;;;;;;;;5075112;28;20052;-76
2023/08/09 11:10:48;;;;;;;4.53;1.23;;;;;;;;;;5075068;28;20418;-76
2023/08/09 11:13:18;;;;;;;0.73;0.63;;;;;;;;;;5074974;28;20066;-77
2023/08/09 11:15:47;;;;;;;1.98;1.30;;;;;;;;;;5057232;28;20040;-77
2023/08/09 11:18:17;;;;;;;0.80;0.80;;;;;;;;;;5075074;28;20111;-74
2023/08/09 11:20:45;;;;;;;1.05;0.70;;;;;;;;;;5074790;28;20044;-75
2023/08/09 11:23:13;;;;;;;2.42;1.67;;;;;;;;;;5074825;28;20044;-76
2023/08/09 11:25:41;;;;;;;5.43;1.52;;;;;;;;;;5074550;28;20120;-75
2023/08/09 11:28:13;;;;;;;6.07;4.07;;;;;;;;;;5074696;28;20059;-76
2023/08/09 11:30:41;;;;;;;3.92;2.00;;;;;;;;;;5074556;28;20036;-76
2023/08/09 11:33:10;;;;;;;2.97;0.80;;;;;;;;;;5074042;28;20436;-77
2023/08/09 11:35:40;;;;;;;0.98;0.60;;;;;;;;;;5073353;28;20041;-75
2023/08/09 11:38:09;;;;;;;1.85;0.90;;;;;;;;;;5074369;28;20072;-77
2023/08/09 11:40:44;;;;;;;1.63;1.20;;;;;;;;;;5056863;28;20074;-74
2023/08/09 11:43:17;;;;;;;3.15;1.80;;;;;;;;;;5074551;28;20071;-75
2023/08/09 11:45:54;;;;;;;2.25;0.90;;;;;;;;;;5074194;28;20514;-74
2023/08/09 11:48:44;;;;;;;0.80;0.80;;;;;;;;;;5074285;28;20119;-75
2023/08/09 11:51:13;;;;;;;1.33;0.90;;;;;;;;;;5057395;28;20123;-76
2023/08/09 11:53:41;;;;;;;1.70;1.00;;;;;;;;;;5074409;28;20045;-77
2023/08/09 11:56:12;;;;;;;1.50;1.38;;;;;;;;;;5074230;28;20041;-76
2023/08/09 11:58:43;;;;;;;1.10;1.00;;;;;;;;;;5056234;28;20513;-76
2023/08/09 12:01:15;;;;;;;2.78;1.25;;;;;;;;;;5073888;28;20068;-77
2023/08/09 12:03:44;;;;;;;1.70;1.17;;;;;;;;;;5074086;28;20494;-75
2023/08/09 12:06:11;;;;;;;0.80;0.80;;;;;;;;;;5074101;28;20036;-78
2023/08/09 12:08:39;;;;;;;1.67;0.80;;;;;;;;;;5073967;28;20505;-76
2023/08/09 12:11:07;;;;;;;4.00;1.20;;;;;;;;;;5073980;28;20047;-77
2023/08/09 12:13:34;;;;;;;1.55;0.85;;;;;;;;;;5074965;28;20520;-76
2023/08/09 12:16:06;;;;;;;2.72;1.50;;;;;;;;;;5074848;28;20037;-77
2023/08/09 12:18:35;;;;;;;1.90;1.60;;;;;;;;;;5073807;28;20052;-77
2023/08/09 12:21:05;;;;;;;5.30;2.08;;;;;;;;;;5073910;28;20052;-77
2023/08/09 12:23:35;;;;;;;2.60;1.50;;;;;;;;;;5073449;28;20094;-77
2023/08/09 12:26:02;;;;;;;2.85;1.95;;;;;;;;;;5073851;28;20039;-77
2023/08/09 12:28:31;;;;;;;2.20;1.50;;;;;;;;;;5073601;28;20049;-78
2023/08/09 12:30:59;;;;;;;3.05;1.40;;;;;;;;;;5073279;28;20390;-77
2023/08/09 12:33:27;;;;;;;1.00;0.85;;;;;;;;;;5073477;28;20067;-77
2023/08/09 12:35:54;;;;;;;1.20;0.88;;;;;;;;;;5073330;28;20090;-76
2023/08/09 12:38:22;;;;;;;2.20;0.98;;;;;;;;;;5073191;28;20107;-76
2023/08/09 12:40:50;;;;;;;0.98;0.85;;;;;;;;;;5073384;28;20394;-75
2023/08/09 12:43:17;;;;;;;2.53;1.17;;;;;;;;;;5073333;28;20098;-77
2023/08/09 12:45:45;;;;;;;1.67;1.10;;;;;;;;;;5073262;28;20055;-75
2023/08/09 12:48:12;;;;;;;2.97;1.05;;;;;;;;;;5072836;28;20048;-75
2023/08/09 12:50:40;;;;;;;1.50;0.73;;;;;;;;;;5055217;28;20253;-74
2023/08/09 12:53:07;;;;;;;2.45;0.95;;;;;;;;;;5073042;28;20054;-75
2023/08/09 12:55:35;;;;;;;2.60;1.05;;;;;;;;;;5073152;28;20032;-74
2023/08/09 12:58:03;;;;;;;3.05;1.10;;;;;;;;;;5073146;28;20049;-75
2023/08/09 13:00:31;;;;;;;1.85;0.90;;;;;;;;;;5072919;28;20044;-76
2023/08/09 13:02:59;;;;;;;3.53;1.27;;;;;;;;;;5073001;28;20506;-75
2023/08/09 13:05:26;;;;;;;1.33;0.90;;;;;;;;;;5073045;28;20037;-75
2023/08/09 13:07:54;;;;;;;3.45;1.00;;;;;;;;;;5072728;28;20131;-74
2023/08/09 13:10:21;;;;;;;2.45;0.80;;;;;;;;;;5072767;28;20075;-76
2023/08/09 13:12:49;;;;;;;2.45;1.90;;;;;;;;;;5055063;28;20066;-75
2023/08/09 13:15:17;;;;;;;3.50;1.60;;;;;;;;;;5072705;28;20116;-76
2023/08/09 13:17:45;;;;;;;1.92;1.45;;;;;;;;;;5048384;28;20041;-76
2023/08/09 13:20:12;;;;;;;1.52;1.13;;;;;;;;;;5059669;28;20106;-78
2023/08/09 13:22:41;;;;;;;2.40;1.00;;;;;;;;;;5051753;28;20040;-74
2023/08/09 13:25:09;;;;;;;2.28;0.60;;;;;;;;;;5052523;28;20059;-74
2023/08/09 13:27:37;;;;;;;1.05;0.68;;;;;;;;;;5055092;28;20041;-74
2023/08/09 13:30:05;;;;;;;1.88;1.20;;;;;;;;;;5054613;28;20402;-75
2023/08/09 13:32:33;;;;;;;1.40;1.00;;;;;;;;;;5052116;28;20498;-76
2023/08/09 13:35:01;;;;;;;1.15;0.82;;;;;;;;;;5060475;28;20044;-75
2023/08/09 13:37:28;;;;;;;1.63;0.95;;;;;;;;;;5065037;28;20409;-73
2023/08/09 13:39:56;;;;;;;1.25;1.10;;;;;;;;;;5070044;28;20033;-75
2023/08/09 13:42:25;;;;;;;1.90;1.38;;;;;;;;;;5060678;28;20037;-76
2023/08/09 13:44:52;;;;;;;2.33;0.75;;;;;;;;;;5065575;28;20051;-74
2023/08/09 13:47:20;;;;;;;2.88;2.13;;;;;;;;;;5071635;28;20370;-74
2023/08/09 13:49:47;;;;;;;2.92;1.70;;;;;;;;;;5072255;28;20044;-73
2023/08/09 13:52:16;;;;;;;3.45;1.33;;;;;;;;;;5072022;28;20037;-77
2023/08/09 13:54:44;;;;;;;4.32;1.58;;;;;;;;;;5072128;28;20123;-75
2023/08/09 13:57:11;;;;;;;1.52;1.20;;;;;;;;;;5054497;28;20048;-74
2023/08/09 13:59:39;;;;;;;1.70;1.33;;;;;;;;;;5074066;28;20051;-73
2023/08/09 14:02:07;;;;;;;1.48;0.75;;;;;;;;;;5075613;28;20040;-73
2023/08/09 14:04:35;;;;;;;2.35;1.08;;;;;;;;;;5075515;28;20080;-73
2023/08/09 14:07:04;;;;;;;2.25;0.90;;;;;;;;;;5057917;28;20047;-76
2023/08/09 14:09:32;;;;;;;3.03;1.60;;;;;;;;;;5075896;28;20042;-74
2023/08/09 14:11:59;;;;;;;5.53;1.70;;;;;;;;;;5075579;28;20127;-76
2023/08/09 14:14:27;;;;;;;3.38;1.10;;;;;;;;;;5075590;28;20132;-74
2023/08/09 14:16:57;;;;;;;3.88;1.83;;;;;;;;;;5075560;28;20068;-74
2023/08/09 14:19:24;;;;;;;3.83;1.00;;;;;;;;;;5075846;28;20095;-74
2023/08/09 14:21:52;;;;;;;4.68;1.40;;;;;;;;;;5075833;28;20047;-74
2023/08/09 14:24:19;;;;;;;8.73;2.28;;;;;;;;;;5075766;28;20052;-73
2023/08/09 14:26:47;;;;;;;11.30;4.15;;;;;;;;;;5075733;28;20379;-73
2023/08/09 14:29:15;;;;;;;2.53;1.17;;;;;;;;;;5075566;28;20127;-74
2023/08/09 14:31:43;;;;;;;5.25;3.15;;;;;;;;;;5075711;28;20041;-74
2023/08/09 14:34:10;;;;;;;2.67;1.88;;;;;;;;;;5075499;28;20054;-74
2023/08/09 14:36:38;;;;;;;1.70;1.45;;;;;;;;;;5075582;28;20040;-74
2023/08/09 14:39:06;;;;;;;2.85;1.92;;;;;;;;;;5056748;28;20041;-77
2023/08/09 14:41:33;;;;;;;1.33;0.90;;;;;;;;;;5059253;28;20045;-76
2023/08/09 14:44:01;;;;;;;2.28;1.42;;;;;;;;;;5048581;28;20447;-73
2023/08/09 14:46:28;;;;;;;1.92;1.50;;;;;;;;;;5058686;28;20052;-74
2023/08/09 14:48:55;;;;;;;1.45;1.33;;;;;;;;;;5074805;28;20064;-75
2023/08/09 14:51:26;;;;;;;2.78;1.05;;;;;;;;;;5057674;28;20043;-74